Terminal Aerodrome Forecast
Issued by NWS

Home | Current Version | Previous Version | Text Only | Print | Product List | Glossary On
Versions: 1 2 3 4 5 6 7 8 9 10 11 12 13 14 15 16 17 18 19 20 21 22 23 24 25 26 27 28 29
000
FTUS43 KDLH 312114 AAB
TAFHIB
TAF AMD
KHIB 312114Z 3121/0118 14007KT 6SM BR OVC005
      TEMPO 3122/3124 5SM -SHRA BR
     FM010300 13005KT 6SM BR OVC009
     FM010700 16004KT P6SM SCT015 BKN080
     FM011600 21012KT 5SM -SHRA BKN015=

USA.gov is the U.S. government's official web portal to all federal, state and local government web resources and services.